createdAt,value
2023-01-27T00:00:53.367Z,6.30
2023-01-27T00:03:24.030Z,6.50
2023-01-27T00:05:54.660Z,6.40
2023-01-27T00:08:27.646Z,6.30
2023-01-27T00:11:13.490Z,6.40
2023-01-27T00:13:43.829Z,6.40
2023-01-27T00:16:14.240Z,6.40
2023-01-27T00:18:44.573Z,6.40
2023-01-27T00:21:27.303Z,6.30
2023-01-27T00:24:12.632Z,6.30
2023-01-27T00:26:43.001Z,6.40
2023-01-27T00:29:13.429Z,6.30
2023-01-27T00:31:56.136Z,6.40
2023-01-27T00:34:26.461Z,6.40
2023-01-27T00:36:56.800Z,6.40
2023-01-27T00:39:29.654Z,6.40
2023-01-27T00:42:00.115Z,6.40
2023-01-27T00:44:30.676Z,6.40
2023-01-27T00:47:01.017Z,6.40
2023-01-27T00:49:31.301Z,6.40
2023-01-27T00:52:01.632Z,6.40
2023-01-27T00:54:34.493Z,6.40
2023-01-27T00:57:05.101Z,6.30
2023-01-27T00:59:35.445Z,6.30
2023-01-27T01:02:06.030Z,6.30
2023-01-27T01:04:40.421Z,6.40
2023-01-27T01:07:11.175Z,6.30
2023-01-27T01:09:44.291Z,6.30
2023-01-27T01:12:14.796Z,6.30
2023-01-27T01:14:45.384Z,6.30
2023-01-27T01:17:16.576Z,6.30
2023-01-27T01:19:46.826Z,6.30
2023-01-27T01:22:17.365Z,6.30
2023-01-27T01:24:50.248Z,6.30
2023-01-27T01:27:20.753Z,6.30
2023-01-27T01:29:51.140Z,6.30
2023-01-27T01:32:21.559Z,6.30
2023-01-27T01:34:51.844Z,6.40
2023-01-27T01:37:22.278Z,6.30
2023-01-27T01:39:55.155Z,6.30
2023-01-27T01:42:27.239Z,6.30
2023-01-27T01:45:45.153Z,6.20
2023-01-27T01:48:19.680Z,6.30
2023-01-27T01:50:54.135Z,6.30
2023-01-27T01:53:29.468Z,6.20
2023-01-27T01:56:08.163Z,6.20
2023-01-27T01:58:38.790Z,6.30
2023-01-27T02:01:10.578Z,6.20
2023-01-27T02:03:45.616Z,6.20
2023-01-27T02:06:16.341Z,6.20
2023-01-27T02:08:49.271Z,6.20
2023-01-27T02:11:22.415Z,6.20
2023-01-27T02:13:52.943Z,6.20
2023-01-27T02:16:23.615Z,6.20
2023-01-27T02:18:54.022Z,6.40
2023-01-27T02:21:24.357Z,6.30
2023-01-27T02:24:02.921Z,6.30
2023-01-27T02:26:40.767Z,6.40
2023-01-27T02:29:14.172Z,6.30
2023-01-27T02:31:45.381Z,6.30
2023-01-27T02:34:21.171Z,6.30
2023-01-27T02:36:55.791Z,6.30
2023-01-27T02:39:32.763Z,6.30
2023-01-27T02:42:08.821Z,6.30
2023-01-27T02:44:39.560Z,6.30
2023-01-27T02:47:10.288Z,6.30
2023-01-27T02:49:40.639Z,6.30
2023-01-27T02:52:12.223Z,6.30
2023-01-27T02:54:43.619Z,6.30
2023-01-27T02:57:16.601Z,6.30
2023-01-27T02:59:59.041Z,6.30
2023-01-27T03:02:30.574Z,6.30
2023-01-27T03:05:01.234Z,6.30
2023-01-27T03:07:31.576Z,6.30
2023-01-27T03:10:01.950Z,6.30
2023-01-27T03:12:35.903Z,6.30
2023-01-27T03:15:18.767Z,6.20
2023-01-27T03:18:01.838Z,6.20
2023-01-27T03:20:32.403Z,6.20
2023-01-27T03:23:02.861Z,6.10
2023-01-27T03:25:34.054Z,6.10
2023-01-27T03:28:07.317Z,6.10
2023-01-27T03:31:04.255Z,6.00
2023-01-27T03:33:53.632Z,6.00
2023-01-27T03:36:49.121Z,6.00
2023-01-27T03:39:32.162Z,6.00
2023-01-27T03:42:15.047Z,6.10
2023-01-27T03:45:00.725Z,5.90
2023-01-27T03:47:31.090Z,5.90
2023-01-27T03:50:01.572Z,5.90
2023-01-27T03:52:31.947Z,5.90
2023-01-27T03:55:02.285Z,5.90
2023-01-27T03:57:32.626Z,5.90
2023-01-27T04:00:05.698Z,5.90
2023-01-27T04:02:55.690Z,6.00
2023-01-27T04:05:38.426Z,5.90
2023-01-27T04:08:10.654Z,5.90
2023-01-27T04:10:40.992Z,5.90
2023-01-27T04:13:08.750Z,5.90
2023-01-27T04:15:41.677Z,5.90
2023-01-27T04:18:11.969Z,5.90
2023-01-27T04:20:42.300Z,5.90
2023-01-27T04:23:12.648Z,5.90
2023-01-27T04:25:42.992Z,5.90
2023-01-27T04:28:29.139Z,5.90
2023-01-27T04:31:10.520Z,5.90
2023-01-27T04:33:40.945Z,5.90
2023-01-27T04:36:11.715Z,5.90
2023-01-27T04:38:42.235Z,5.90
2023-01-27T04:41:12.808Z,5.80
2023-01-27T04:43:43.237Z,5.90
2023-01-27T04:46:16.227Z,5.80
2023-01-27T04:48:46.577Z,5.80
2023-01-27T04:51:16.930Z,5.70
2023-01-27T04:53:47.301Z,5.70
2023-01-27T04:56:29.842Z,5.70
2023-01-27T04:59:02.076Z,5.70
2023-01-27T05:01:35.092Z,5.70
2023-01-27T05:04:05.680Z,5.70
2023-01-27T05:06:36.158Z,5.70
2023-01-27T05:09:06.597Z,5.70
2023-01-27T05:11:36.959Z,5.70
2023-01-27T05:14:07.290Z,5.60
2023-01-27T05:16:42.282Z,5.70
2023-01-27T05:19:13.165Z,5.60
2023-01-27T05:21:43.622Z,5.60
2023-01-27T05:24:14.320Z,5.60
2023-01-27T05:26:44.687Z,5.60
2023-01-27T05:29:15.187Z,5.60
2023-01-27T05:31:48.518Z,5.70
2023-01-27T05:34:19.029Z,5.70
2023-01-27T05:36:49.515Z,5.70
2023-01-27T05:39:20.026Z,5.70
2023-01-27T05:41:50.592Z,5.70
2023-01-27T05:44:20.937Z,5.70
2023-01-27T05:46:53.902Z,5.60
2023-01-27T05:49:24.200Z,5.60
2023-01-27T05:51:54.607Z,5.60
2023-01-27T05:54:24.946Z,5.70
2023-01-27T05:56:56.259Z,5.70
2023-01-27T05:59:27.146Z,5.60
2023-01-27T06:02:00.178Z,5.70
2023-01-27T06:04:30.749Z,5.70
2023-01-27T06:07:01.084Z,5.70
2023-01-27T06:09:31.412Z,5.70
2023-01-27T06:12:01.734Z,5.60
2023-01-27T06:14:32.161Z,5.60
2023-01-27T06:17:05.056Z,5.70
2023-01-27T06:19:35.778Z,5.60
2023-01-27T06:22:06.137Z,5.70
2023-01-27T06:24:36.655Z,5.60
2023-01-27T06:27:07.056Z,5.60
2023-01-27T06:29:37.486Z,5.60
2023-01-27T06:32:10.618Z,5.60
2023-01-27T06:34:40.955Z,5.70
2023-01-27T06:37:11.266Z,5.60
2023-01-27T06:39:41.816Z,5.60
2023-01-27T06:42:12.488Z,5.60
2023-01-27T06:44:42.837Z,5.50
2023-01-27T06:47:15.978Z,5.60
2023-01-27T06:49:46.490Z,5.50
2023-01-27T06:52:17.125Z,5.60
2023-01-27T06:54:47.560Z,5.60
2023-01-27T06:57:18.426Z,5.50
2023-01-27T06:59:48.758Z,5.50
2023-01-27T07:02:21.772Z,5.50
2023-01-27T07:04:52.318Z,5.50
2023-01-27T07:07:22.800Z,5.40
2023-01-27T07:09:53.200Z,5.40
2023-01-27T07:12:23.540Z,5.50
2023-01-27T07:14:53.891Z,5.40
2023-01-27T07:17:26.852Z,5.50
2023-01-27T07:19:57.195Z,5.50
2023-01-27T07:22:27.702Z,5.50
2023-01-27T07:24:58.249Z,5.50
2023-01-27T07:27:29.704Z,5.50
2023-01-27T07:30:00.147Z,5.50
2023-01-27T07:32:33.132Z,5.50
2023-01-27T07:35:03.479Z,5.60
2023-01-27T07:37:33.898Z,5.40
2023-01-27T07:40:04.330Z,5.50
2023-01-27T07:42:34.686Z,5.60
2023-01-27T07:45:05.106Z,5.50
2023-01-27T07:47:38.075Z,5.60
2023-01-27T07:50:09.393Z,5.50
2023-01-27T07:52:39.750Z,5.50
2023-01-27T07:55:11.293Z,5.40
2023-01-27T07:57:41.737Z,5.50
2023-01-27T08:00:15.816Z,5.50
2023-01-27T08:02:52.855Z,5.40
2023-01-27T08:05:23.769Z,5.50
2023-01-27T08:07:55.720Z,5.50
2023-01-27T08:10:27.017Z,5.40
2023-01-27T08:12:57.453Z,5.50
2023-01-27T08:15:27.873Z,5.50
2023-01-27T08:18:02.595Z,5.50
2023-01-27T08:20:33.008Z,5.50
2023-01-27T08:23:03.562Z,5.50
2023-01-27T08:25:34.337Z,5.50
2023-01-27T08:28:04.674Z,5.50
2023-01-27T08:30:35.152Z,5.70
2023-01-27T08:33:08.347Z,5.60
2023-01-27T08:35:41.375Z,5.60
2023-01-27T08:38:12.060Z,5.60
2023-01-27T08:40:42.694Z,5.50
2023-01-27T08:43:13.682Z,5.60
2023-01-27T08:45:43.990Z,5.60
2023-01-27T08:48:16.957Z,5.60
2023-01-27T08:50:47.232Z,5.50
2023-01-27T08:53:17.581Z,5.50
2023-01-27T08:55:47.830Z,5.50
2023-01-27T08:58:18.261Z,5.50
2023-01-27T09:00:48.624Z,5.70
2023-01-27T09:03:21.688Z,5.50
2023-01-27T09:05:52.170Z,5.50
2023-01-27T09:08:22.745Z,5.50
2023-01-27T09:10:53.100Z,5.50
2023-01-27T09:13:24.185Z,5.50
2023-01-27T09:15:54.754Z,5.60
2023-01-27T09:18:27.775Z,5.70
2023-01-27T09:20:58.178Z,5.50
2023-01-27T09:23:28.636Z,5.50
2023-01-27T09:25:59.087Z,5.50
2023-01-27T09:28:29.487Z,5.50
2023-01-27T09:31:01.229Z,5.60
2023-01-27T09:33:34.496Z,5.50
2023-01-27T09:36:09.972Z,5.60
2023-01-27T09:38:45.031Z,5.60
2023-01-27T09:41:37.474Z,5.60
2023-01-27T09:44:41.411Z,5.60
2023-01-27T09:47:26.248Z,5.60
2023-01-27T09:50:16.125Z,5.60
2023-01-27T09:53:18.338Z,5.60
2023-01-27T09:55:57.272Z,5.60
2023-01-27T09:58:39.185Z,5.60
2023-01-27T10:01:18.629Z,5.70
2023-01-27T10:04:18.755Z,5.60
2023-01-27T10:07:06.106Z,5.60
2023-01-27T10:10:03.778Z,5.60
2023-01-27T10:12:51.314Z,5.60
2023-01-27T10:15:33.497Z,5.60
2023-01-27T10:18:13.883Z,5.60
2023-01-27T10:20:51.457Z,5.60
2023-01-27T10:23:37.420Z,5.60
2023-01-27T10:26:21.241Z,5.60
2023-01-27T10:28:54.664Z,5.70
2023-01-27T10:31:29.669Z,5.70
2023-01-27T10:34:06.596Z,5.90
2023-01-27T10:36:46.410Z,5.80
2023-01-27T10:39:28.732Z,5.80
2023-01-27T10:42:08.301Z,6.00
2023-01-27T10:44:51.070Z,5.90
2023-01-27T10:47:34.606Z,5.90
2023-01-27T10:50:08.116Z,5.90
2023-01-27T10:52:43.165Z,6.00
2023-01-27T10:55:25.762Z,6.00
2023-01-27T10:58:00.484Z,6.00
2023-01-27T11:01:12.967Z,6.00
2023-01-27T11:03:32.667Z,6.00
2023-01-27T11:06:07.189Z,6.00
2023-01-27T11:08:41.367Z,6.00
2023-01-27T11:11:27.159Z,6.00
2023-01-27T11:14:04.852Z,6.00
2023-01-27T11:16:39.676Z,6.00
2023-01-27T11:19:19.592Z,6.10
2023-01-27T11:22:06.806Z,6.00
2023-01-27T11:24:44.436Z,6.10
2023-01-27T11:27:30.022Z,6.10
2023-01-27T11:30:05.269Z,6.10
2023-01-27T11:32:46.238Z,6.10
2023-01-27T11:35:18.512Z,6.10
2023-01-27T11:37:51.673Z,6.10
2023-01-27T11:40:27.563Z,6.10
2023-01-27T11:43:02.044Z,6.20
2023-01-27T11:45:37.454Z,6.20
2023-01-27T11:48:14.491Z,6.10
2023-01-27T11:50:46.027Z,6.10
2023-01-27T11:53:22.021Z,6.10
2023-01-27T11:55:55.934Z,6.10
2023-01-27T11:58:35.140Z,6.10
2023-01-27T12:01:12.967Z,6.10
2023-01-27T12:03:52.773Z,6.10
2023-01-27T12:06:46.476Z,6.20
2023-01-27T12:09:35.632Z,6.10
2023-01-27T12:12:24.433Z,6.10
2023-01-27T12:14:59.271Z,6.10
2023-01-27T12:17:35.233Z,6.20
2023-01-27T12:20:09.996Z,6.20
2023-01-27T12:22:43.253Z,6.10
2023-01-27T12:25:22.591Z,6.10
2023-01-27T12:27:56.711Z,6.10
2023-01-27T12:30:32.619Z,6.10
2023-01-27T12:33:03.477Z,6.10
2023-01-27T12:35:38.129Z,6.10
2023-01-27T12:38:16.224Z,6.10
2023-01-27T12:40:49.671Z,6.10
2023-01-27T12:43:21.790Z,6.10
2023-01-27T12:46:07.968Z,6.10
2023-01-27T12:48:50.219Z,6.10
2023-01-27T12:51:23.534Z,6.10
2023-01-27T12:54:14.611Z,6.10
2023-01-27T12:56:46.241Z,6.10
2023-01-27T12:59:19.247Z,6.20
2023-01-27T13:02:03.647Z,6.30
2023-01-27T13:04:36.608Z,6.10
2023-01-27T13:07:11.152Z,6.20
2023-01-27T13:09:49.341Z,6.20
2023-01-27T13:12:23.429Z,6.20
2023-01-27T13:14:56.335Z,6.10
2023-01-27T13:17:39.111Z,6.10
2023-01-27T13:20:19.308Z,6.10
2023-01-27T13:22:51.935Z,6.10
2023-01-27T13:25:26.135Z,6.10
2023-01-27T13:28:01.664Z,6.30
2023-01-27T13:30:37.051Z,6.10
2023-01-27T13:33:24.834Z,6.10
2023-01-27T13:36:02.819Z,6.10
2023-01-27T13:38:45.072Z,6.10
2023-01-27T13:41:21.762Z,6.10
2023-01-27T13:44:00.413Z,6.20
2023-01-27T13:46:34.475Z,6.20
2023-01-27T13:49:20.626Z,6.20
2023-01-27T13:51:51.047Z,6.20
2023-01-27T13:54:23.948Z,6.20
2023-01-27T13:57:08.623Z,6.20
2023-01-27T13:59:48.257Z,6.20
2023-01-27T14:02:36.405Z,6.20
2023-01-27T14:05:21.380Z,6.20
2023-01-27T14:08:01.199Z,6.30
2023-01-27T14:10:39.338Z,6.20
2023-01-27T14:13:29.685Z,6.20
2023-01-27T14:16:09.882Z,6.20
2023-01-27T14:18:44.452Z,6.10
2023-01-27T14:21:38.314Z,6.10
2023-01-27T14:24:24.349Z,6.20
2023-01-27T14:27:01.494Z,6.10
2023-01-27T14:29:40.411Z,6.20
2023-01-27T14:32:18.756Z,6.10
2023-01-27T14:34:57.328Z,6.10
2023-01-27T14:37:31.810Z,6.10
2023-01-27T14:40:20.168Z,6.10
2023-01-27T14:43:03.640Z,6.10
2023-01-27T14:45:37.779Z,6.20
2023-01-27T14:48:21.714Z,6.10
2023-01-27T14:51:09.768Z,6.10
2023-01-27T14:53:52.957Z,6.10
2023-01-27T14:56:37.293Z,6.10
2023-01-27T14:59:14.274Z,6.10
2023-01-27T15:01:54.886Z,6.10
2023-01-27T15:04:37.669Z,6.00
2023-01-27T15:07:15.510Z,6.10
2023-01-27T15:10:02.223Z,6.00
2023-01-27T15:12:55.884Z,6.10
2023-01-27T15:15:45.811Z,6.10
2023-01-27T15:18:31.260Z,6.10
2023-01-27T15:21:14.785Z,6.10
2023-01-27T15:24:20.623Z,6.20
2023-01-27T15:26:51.867Z,6.10
2023-01-27T15:29:30.878Z,6.10
2023-01-27T15:32:29.183Z,6.10
2023-01-27T15:35:14.439Z,6.10
2023-01-27T15:37:59.616Z,6.10
2023-01-27T15:40:30.501Z,6.10
2023-01-27T15:43:07.597Z,6.20
2023-01-27T15:45:43.838Z,6.20
2023-01-27T15:48:17.913Z,6.10
2023-01-27T15:50:51.485Z,6.10
2023-01-27T15:53:31.612Z,6.10
2023-01-27T15:56:04.042Z,6.10
2023-01-27T15:58:39.861Z,6.00
2023-01-27T16:01:25.861Z,6.00
2023-01-27T16:04:09.300Z,6.10
2023-01-27T16:06:50.793Z,6.00
2023-01-27T16:09:30.245Z,6.10
2023-01-27T16:12:03.143Z,6.10
2023-01-27T16:14:42.240Z,5.90
2023-01-27T16:17:28.249Z,6.00
2023-01-27T16:20:21.037Z,6.00
2023-01-27T16:22:56.971Z,6.00
2023-01-27T16:25:34.552Z,6.00
2023-01-27T16:28:10.614Z,6.00
2023-01-27T16:30:46.401Z,6.00
2023-01-27T16:33:27.813Z,6.00
2023-01-27T16:36:06.637Z,6.00
2023-01-27T16:38:39.925Z,6.00
2023-01-27T16:41:19.976Z,6.00
2023-01-27T16:43:54.475Z,6.00
2023-01-27T16:46:33.994Z,6.00
2023-01-27T16:49:14.611Z,6.00
2023-01-27T16:51:46.057Z,6.00
2023-01-27T16:54:27.738Z,6.00
2023-01-27T16:56:58.480Z,6.00
2023-01-27T16:59:31.140Z,6.00
2023-01-27T17:02:05.745Z,6.00
2023-01-27T17:04:38.880Z,6.00
2023-01-27T17:07:13.571Z,6.00
2023-01-27T17:09:45.685Z,6.00
2023-01-27T17:12:31.146Z,6.00
2023-01-27T17:15:02.313Z,6.00
2023-01-27T17:17:37.339Z,6.00
2023-01-27T17:20:12.382Z,6.10
2023-01-27T17:22:45.811Z,6.10
2023-01-27T17:25:19.095Z,6.20
2023-01-27T17:27:50.259Z,6.10
2023-01-27T17:30:24.288Z,6.10
2023-01-27T17:32:57.599Z,6.10
2023-01-27T17:35:33.224Z,6.10
2023-01-27T17:38:16.099Z,6.10
2023-01-27T17:40:49.004Z,6.10
2023-01-27T17:43:28.015Z,6.10
2023-01-27T17:46:19.145Z,6.20
2023-01-27T17:48:55.228Z,6.10
2023-01-27T17:51:30.186Z,6.10
2023-01-27T17:54:02.428Z,6.10
2023-01-27T17:56:35.056Z,6.10
2023-01-27T17:59:10.120Z,6.10
2023-01-27T18:01:41.101Z,6.20
2023-01-27T18:04:13.235Z,6.20
2023-01-27T18:06:47.082Z,6.20
2023-01-27T18:09:21.128Z,6.20
2023-01-27T18:11:56.922Z,6.20
2023-01-27T18:14:29.908Z,6.20
2023-01-27T18:17:02.806Z,6.20
2023-01-27T18:19:33.939Z,6.20
2023-01-27T18:22:15.197Z,6.20
2023-01-27T18:24:52.941Z,6.20
2023-01-27T18:27:27.113Z,6.20
2023-01-27T18:30:02.262Z,6.20
2023-01-27T18:32:40.850Z,6.20
2023-01-27T18:35:26.355Z,6.20
2023-01-27T18:38:02.280Z,6.10
2023-01-27T18:40:34.655Z,6.10
2023-01-27T18:43:07.140Z,6.10
2023-01-27T18:45:37.463Z,6.20
2023-01-27T18:48:13.526Z,6.20
2023-01-27T18:50:46.215Z,6.20
2023-01-27T18:53:20.767Z,6.20
2023-01-27T18:55:52.865Z,6.20
2023-01-27T18:58:24.028Z,6.20
2023-01-27T19:00:57.469Z,6.20
2023-01-27T19:03:30.750Z,6.10
2023-01-27T19:06:01.183Z,6.20
2023-01-27T19:08:34.348Z,6.20
2023-01-27T19:11:04.708Z,6.20
2023-01-27T19:13:34.992Z,6.10
2023-01-27T19:16:06.255Z,6.20
2023-01-27T19:18:39.459Z,6.10
2023-01-27T19:21:11.939Z,6.10
2023-01-27T19:23:47.489Z,6.20
2023-01-27T19:26:20.194Z,6.20
2023-01-27T19:28:54.320Z,6.20
2023-01-27T19:31:25.358Z,6.20
2023-01-27T19:33:57.750Z,6.20
2023-01-27T19:36:32.317Z,6.20
2023-01-27T19:39:15.346Z,6.30
2023-01-27T19:41:47.078Z,6.20
2023-01-27T19:44:17.829Z,6.20
2023-01-27T19:46:48.516Z,6.20
2023-01-27T19:49:20.238Z,6.20
2023-01-27T19:51:50.889Z,6.20
2023-01-27T19:54:24.004Z,6.20
2023-01-27T19:56:54.515Z,6.20
2023-01-27T19:59:25.405Z,6.20
2023-01-27T20:01:56.950Z,6.20
2023-01-27T20:04:27.707Z,6.20
2023-01-27T20:06:58.570Z,6.20
2023-01-27T20:09:31.798Z,6.20
2023-01-27T20:12:02.253Z,6.20
2023-01-27T20:14:32.545Z,6.20
2023-01-27T20:17:02.973Z,6.20
2023-01-27T20:19:33.282Z,6.20
2023-01-27T20:22:03.732Z,6.10
2023-01-27T20:24:36.707Z,6.10
2023-01-27T20:27:07.397Z,6.10
2023-01-27T20:29:37.790Z,6.10
2023-01-27T20:32:09.720Z,6.10
2023-01-27T20:34:40.676Z,6.10
2023-01-27T20:37:11.022Z,6.10
2023-01-27T20:39:44.023Z,6.20
2023-01-27T20:42:14.389Z,6.20
2023-01-27T20:44:44.788Z,6.20
2023-01-27T20:47:15.692Z,6.20
2023-01-27T20:49:46.902Z,6.20
2023-01-27T20:52:17.287Z,6.20
2023-01-27T20:54:50.241Z,6.20
2023-01-27T20:57:22.247Z,6.10
2023-01-27T20:59:52.651Z,6.10
2023-01-27T21:02:23.016Z,6.10
2023-01-27T21:04:53.399Z,6.10
2023-01-27T21:07:24.404Z,6.10
2023-01-27T21:09:57.454Z,6.10
2023-01-27T21:12:29.646Z,6.10
2023-01-27T21:15:01.812Z,6.20
2023-01-27T21:17:32.297Z,6.10
2023-01-27T21:20:02.820Z,6.20
2023-01-27T21:22:34.688Z,6.20
2023-01-27T21:25:08.445Z,6.20
2023-01-27T21:27:39.097Z,6.20
2023-01-27T21:30:11.407Z,6.20
2023-01-27T21:32:41.830Z,6.10
2023-01-27T21:35:12.768Z,6.20
2023-01-27T21:37:43.303Z,6.10
2023-01-27T21:40:17.092Z,6.10
2023-01-27T21:42:59.796Z,6.20
2023-01-27T21:45:30.232Z,6.10
2023-01-27T21:48:00.642Z,6.10
2023-01-27T21:50:31.031Z,6.10
2023-01-27T21:53:01.472Z,6.10
2023-01-27T21:55:35.519Z,6.10
2023-01-27T21:58:05.890Z,6.10
2023-01-27T22:00:36.442Z,6.00
2023-01-27T22:03:07.435Z,6.00
2023-01-27T22:05:40.312Z,6.10
2023-01-27T22:08:10.769Z,6.20
2023-01-27T22:10:43.797Z,6.10
2023-01-27T22:13:14.470Z,6.10
2023-01-27T22:15:44.884Z,6.10
2023-01-27T22:18:15.236Z,6.10
2023-01-27T22:20:45.640Z,6.10
2023-01-27T22:23:16.606Z,6.10
2023-01-27T22:25:54.299Z,6.10
2023-01-27T22:28:26.701Z,6.10
2023-01-27T22:30:57.489Z,6.10
2023-01-27T22:33:28.331Z,6.10
2023-01-27T22:36:02.997Z,6.10
2023-01-27T22:38:33.444Z,6.10
2023-01-27T22:41:06.398Z,6.10
2023-01-27T22:43:37.039Z,6.10
2023-01-27T22:46:07.885Z,6.10
2023-01-27T22:48:38.316Z,6.10
2023-01-27T22:51:09.552Z,6.10
2023-01-27T22:53:39.996Z,6.10
2023-01-27T22:56:13.397Z,6.10
2023-01-27T22:58:43.919Z,6.10
2023-01-27T23:01:14.501Z,6.10
2023-01-27T23:03:44.896Z,6.10
2023-01-27T23:06:16.133Z,6.20
2023-01-27T23:08:46.569Z,6.10
2023-01-27T23:11:19.519Z,6.10
2023-01-27T23:13:49.893Z,6.10
2023-01-27T23:16:20.336Z,6.20
2023-01-27T23:18:51.057Z,6.20
2023-01-27T23:21:21.447Z,6.30
2023-01-27T23:23:53.729Z,6.20
2023-01-27T23:26:26.849Z,6.20
2023-01-27T23:28:57.229Z,6.20
2023-01-27T23:31:27.726Z,6.20
2023-01-27T23:33:58.141Z,6.10
2023-01-27T23:36:29.075Z,6.20
2023-01-27T23:38:59.507Z,6.10
2023-01-27T23:41:32.440Z,6.10
2023-01-27T23:44:02.761Z,6.10
2023-01-27T23:46:33.208Z,6.10
2023-01-27T23:49:03.586Z,6.00
2023-01-27T23:51:33.919Z,6.00
2023-01-27T23:54:04.262Z,6.10
2023-01-27T23:56:37.643Z,6.10
2023-01-27T23:59:07.976Z,6.10
